Old Forge, NY (13420)

6:39 AM EDT on May 25, 2015 (GMT -0400)
Information Center | | Change Station
CLOSE
Current Station
Personal Weather Station
Location: Old Forge, NY
Elevation: 1713 ft
Nearby Weather Stations

Elev 1713 ft 43.71 °N, 74.97 °W | Updated 2 minutes ago

Overcast
Overcast
51.0 °F
Feels Like 51.0 °F
N
0.0
Wind Variable Wind from SW
Gusts 0.0 mph

Today
High -- | Low -- °F
--% Chance of Precip.
Yesterday
High -- | Low -- °F
Precip. -- in
5:25 AM 8:28 PM
Waxing Crescent, 47% visible
Pressure 30.22 in
Visibility 10.0 miles
Clouds Few 6000 ft
Mostly Cloudy 9000 ft
Overcast 11000 ft
Dew Point 28 °F
Humidity 40%
Rainfall -999.00 in
Snow Depth Not available.
UV 0 out of 12
Pollen 10.20 out of 12
Air Quality Not available.
Flu Activity Widespread
METAR KRME 250953Z AUTO 00000KT 10SM FEW060 BKN090 OVC110 14/08 A3022 RMK AO2 SLP231 T01390083

More Conditions Fewer Conditions

Pressure 30.22 in
Visibility 10.0 miles
Clouds Few 6000 ft
Mostly Cloudy 9000 ft
Overcast 11000 ft
Dew Point 28 °F
Humidity 40%
Rainfall -999.00 in
Snow Depth Not available.
UV 0 out of 12
Pollen 10.20 out of 12
Air Quality Not available.
Flu Activity Widespread
METAR KRME 250953Z AUTO 00000KT 10SM FEW060 BKN090 OVC110 14/08 A3022 RMK AO2 SLP231 T01390083

More Conditions Fewer Conditions

10-Day Weather Forecast

Almanac

Astronomy

May. 25, 2015 Rise Set
Actual Time
Civil Twilight
Nautical Twilight
Astronomical Twilight
Moon
Length of Visible Light
Length of Day
Tomorrow will be .
, % of the Moon is Illuminated

Today's Extremes

State Highs State Lows

Community

WunderPhotos

Upload Photos

1,823,973 photos uploaded!

WunderBlogs® & News

Nearby

Air Quality

  Air Quality AQ Index Pollutant
Not available.

Snow Depth

Station Depth Elevation

Earthquake Activity

City Distance Mag. Time & Date
Minimum magnitude displayed is 2.5.

Coastal Water Temperatures

Place Temperature

Stations

Nearby Weather Stations

Station Location Temp. Windchill Dew Point Humidity Wind Precip. Elev Updated Type